Time;durP1;ratioP1;P1;durP2;ratioP2;P2;SDS_P1;SDS_P2;PMS_P1;PMS_P2;Temp;Humidity;BMP_temperature;BMP_pressure;BME280_temperature;BME280_humidity;BME280_pressure;Samples;Min_cycle;Max_cycle;Signal;HPM_P1;HPM_P2
2022/06/11 00:04:13;;;;;;;10.38;5.07;;;;;;;15.36;100.00;102011.19;10546262;28;20039;-76
2022/06/11 00:09:13;;;;;;;8.32;2.22;;;;;;;15.27;100.00;102005.06;10545983;28;20076;-75
2022/06/11 00:14:14;;;;;;;7.15;3.35;;;;;;;15.25;100.00;102000.84;10510445;28;20062;-75
2022/06/11 00:19:15;;;;;;;17.38;4.50;;;;;;;15.26;100.00;102000.66;10547236;28;20039;-75
2022/06/11 00:24:15;;;;;;;6.78;3.72;;;;;;;15.22;100.00;102001.25;10531726;28;20421;-76
2022/06/11 00:29:16;;;;;;;6.93;2.85;;;;;;;15.18;100.00;102002.69;10531702;28;20028;-75
2022/06/11 00:34:16;;;;;;;18.00;4.78;;;;;;;15.17;100.00;102001.03;10514997;28;20024;-76
2022/06/11 00:39:19;;;;;;;7.43;3.95;;;;;;;15.10;100.00;102003.72;10516368;28;20032;-76
2022/06/11 00:44:20;;;;;;;8.95;3.88;;;;;;;15.04;100.00;101997.16;10550236;28;20071;-76
2022/06/11 00:49:33;;;;;;;8.93;3.72;;;;;;;15.00;100.00;102009.53;10543143;28;20031;-75
2022/06/11 00:54:33;;;;;;;11.73;3.67;;;;;;;15.01;100.00;102005.75;10527100;28;20381;-76
2022/06/11 00:59:43;;;;;;;6.97;2.97;;;;;;;15.09;100.00;102007.47;10509811;28;20043;-76
2022/06/11 01:04:47;;;;;;;8.90;4.13;;;;;;;15.09;100.00;102004.75;10526323;28;20465;-75
2022/06/11 01:10:18;;;;;;;9.35;4.80;;;;;;;15.06;100.00;102003.28;10543568;28;20070;-76
2022/06/11 01:15:55;;;;;;;9.18;3.58;;;;;;;15.04;100.00;102008.09;10544057;28;20480;-76
2022/06/11 01:20:59;;;;;;;4.90;3.38;;;;;;;14.97;100.00;101999.03;10510631;28;20024;-75
2022/06/11 01:26:24;;;;;;;13.48;3.67;;;;;;;14.92;100.00;102006.94;10542831;28;20035;-75
2022/06/11 01:31:56;;;;;;;7.55;2.80;;;;;;;14.92;100.00;102017.03;10542046;28;20028;-75
2022/06/11 01:37:10;;;;;;;23.88;3.60;;;;;;;14.83;100.00;102019.03;10529763;28;20072;-75
2022/06/11 01:42:22;;;;;;;11.75;4.10;;;;;;;14.75;100.00;102019.22;10508850;28;20389;-75
2022/06/11 01:47:22;;;;;;;15.30;4.03;;;;;;;14.73;100.00;102013.09;10508901;28;20060;-75
2022/06/11 01:52:46;;;;;;;12.55;4.93;;;;;;;14.73;100.00;102018.56;10541767;28;20090;-76
2022/06/11 01:58:22;;;;;;;18.23;3.83;;;;;;;14.62;100.00;102017.22;10542100;28;20056;-75
2022/06/11 02:03:34;;;;;;;16.13;4.80;;;;;;;14.55;100.00;102027.19;10510663;28;20043;-75
2022/06/11 02:09:05;;;;;;;10.70;4.45;;;;;;;14.54;100.00;102030.97;10508841;28;20048;-75
2022/06/11 02:14:12;;;;;;;29.15;5.35;;;;;;;14.46;100.00;102022.91;10523930;28;20079;-75
2022/06/11 02:19:15;;;;;;;14.77;4.20;;;;;;;14.42;100.00;102027.88;10507806;28;20058;-75
2022/06/11 02:24:18;;;;;;;10.60;3.70;;;;;;;14.46;100.00;102029.22;10507124;28;20043;-75
2022/06/11 02:29:19;;;;;;;18.05;4.88;;;;;;;14.45;100.00;102032.94;10540711;28;20034;-76
2022/06/11 02:34:21;;;;;;;17.50;5.95;;;;;;;14.44;100.00;102020.38;10522911;28;20480;-76
2022/06/11 02:39:21;;;;;;;17.02;3.88;;;;;;;14.49;100.00;102031.53;10489117;28;20122;-76
2022/06/11 02:44:21;;;;;;;23.65;4.97;;;;;;;14.47;100.00;102035.50;10522224;28;20505;-76
2022/06/11 02:49:24;;;;;;;19.15;5.78;;;;;;;14.43;100.00;102038.63;10522299;28;20123;-76
2022/06/11 02:54:28;;;;;;;15.60;4.13;;;;;;;14.37;100.00;102052.19;10541636;28;20040;-75
2022/06/11 02:59:28;;;;;;;22.30;6.20;;;;;;;14.34;100.00;102055.28;10539990;28;20436;-75
2022/06/11 03:04:29;;;;;;;15.95;5.85;;;;;;;14.32;100.00;102051.91;10506737;28;20084;-75
2022/06/11 03:09:31;;;;;;;10.02;4.00;;;;;;;14.29;100.00;102055.84;10522006;28;20051;-75
2022/06/11 03:14:31;;;;;;;20.27;5.65;;;;;;;14.27;100.00;102068.84;10521536;28;20032;-75
2022/06/11 03:19:32;;;;;;;17.98;6.45;;;;;;;14.29;100.00;102071.38;10504260;28;20487;-75
2022/06/11 03:24:32;;;;;;;15.48;6.32;;;;;;;14.30;100.00;102075.78;10540771;28;20068;-75
2022/06/11 03:29:32;;;;;;;11.23;5.63;;;;;;;14.25;100.00;102072.78;10543655;28;20431;-75
2022/06/11 03:34:33;;;;;;;24.40;6.20;;;;;;;14.22;100.00;102082.19;10529098;28;20024;-75
2022/06/11 03:39:33;;;;;;;21.65;6.60;;;;;;;14.23;100.00;102092.06;10512391;28;20044;-76
2022/06/11 03:44:35;;;;;;;11.20;4.68;;;;;;;14.24;100.00;102091.03;10529410;28;20384;-75
2022/06/11 03:49:35;;;;;;;18.48;6.45;;;;;;;14.33;100.00;102099.94;10547242;28;20043;-75
2022/06/11 03:54:36;;;;;;;54.45;6.65;;;;;;;14.37;100.00;102098.50;10529523;28;20046;-75
2022/06/11 03:59:36;;;;;;;25.23;5.43;;;;;;;14.34;100.00;102104.34;10527694;28;20044;-75
2022/06/11 04:04:36;;;;;;;23.55;7.35;;;;;;;14.32;100.00;102109.13;10547727;28;20089;-75
2022/06/11 04:09:42;;;;;;;24.48;5.55;;;;;;;14.36;100.00;102115.91;10546719;28;20472;-75
2022/06/11 04:14:44;;;;;;;26.65;6.82;;;;;;;14.49;100.00;102121.50;10546862;28;20032;-76
2022/06/11 04:19:46;;;;;;;22.55;5.25;;;;;;;14.56;100.00;102127.03;10528508;28;20039;-75
2022/06/11 04:24:46;;;;;;;34.25;6.85;;;;;;;14.62;100.00;102121.66;10527100;28;20031;-75
2022/06/11 04:29:50;;;;;;;15.13;5.95;;;;;;;14.77;100.00;102123.44;10510555;28;20028;-75
2022/06/11 04:34:51;;;;;;;22.15;6.70;;;;;;;14.88;100.00;102131.97;10528501;28;20048;-75
2022/06/11 04:39:52;;;;;;;17.42;5.57;;;;;;;15.54;100.00;102144.44;10525793;28;20036;-75
2022/06/11 04:44:52;;;;;;;16.52;6.40;;;;;;;16.37;100.00;102131.63;10545010;28;20038;-76
2022/06/11 04:49:54;;;;;;;17.13;6.53;;;;;;;16.88;100.00;102128.38;10526920;28;20122;-76
2022/06/11 04:54:55;;;;;;;23.70;8.10;;;;;;;17.21;100.00;102138.47;10526897;28;20032;-76
2022/06/11 04:59:55;;;;;;;17.13;5.97;;;;;;;17.78;100.00;102145.16;10545868;28;20028;-76
2022/06/11 05:04:55;;;;;;;33.35;7.10;;;;;;;17.72;100.00;102143.25;10526200;28;20389;-77
2022/06/11 05:09:56;;;;;;;18.17;5.35;;;;;;;17.99;100.00;102146.75;10544349;28;20059;-76
2022/06/11 05:14:56;;;;;;;27.00;8.05;;;;;;;18.53;99.17;102144.59;10525240;28;20095;-77
2022/06/11 05:19:56;;;;;;;30.45;6.50;;;;;;;18.98;97.48;102153.63;10543090;28;20538;-77
2022/06/11 05:24:57;;;;;;;19.42;6.47;;;;;;;19.14;95.16;102163.19;10542120;28;20040;-77
2022/06/11 05:30:06;;;;;;;12.52;5.97;;;;;;;19.22;93.63;102154.69;10542543;28;20032;-77
2022/06/11 05:35:09;;;;;;;11.55;5.15;;;;;;;19.27;93.37;102165.84;10543864;28;20031;-77
2022/06/11 05:40:09;;;;;;;19.30;5.53;;;;;;;19.71;91.41;102169.47;10525692;28;20099;-77
2022/06/11 05:45:10;;;;;;;20.52;7.25;;;;;;;20.05;88.62;102167.19;10543030;28;20096;-78
2022/06/11 05:50:13;;;;;;;21.33;7.35;;;;;;;20.54;86.55;102175.47;10543089;28;20111;-78
2022/06/11 05:55:18;;;;;;;13.90;6.57;;;;;;;21.09;86.36;102169.75;10524101;28;20059;-78
2022/06/11 06:00:19;;;;;;;25.20;5.90;;;;;;;21.44;84.83;102164.34;10523807;28;20115;-78
2022/06/11 06:05:24;;;;;;;14.93;7.05;;;;;;;21.63;80.81;102166.94;10524789;28;20043;-78
2022/06/11 06:10:25;;;;;;;18.23;6.67;;;;;;;21.97;81.15;102177.09;10525227;28;20036;-78
2022/06/11 06:15:26;;;;;;;19.08;5.68;;;;;;;22.37;75.91;102173.56;10544978;28;20092;-79
2022/06/11 06:20:27;;;;;;;16.85;5.53;;;;;;;22.87;78.38;102177.50;10534262;28;20111;-79
2022/06/11 06:25:27;;;;;;;20.83;5.55;;;;;;;23.44;78.92;102178.22;10559499;28;20032;-79
2022/06/11 06:30:27;;;;;;;15.18;6.85;;;;;;;23.73;74.02;102185.59;10549668;28;20370;-79
2022/06/11 06:35:28;;;;;;;15.82;5.78;;;;;;;23.61;71.56;102182.88;10541501;28;20032;-79
2022/06/11 06:40:29;;;;;;;23.52;5.80;;;;;;;24.02;71.50;102189.84;10550752;28;20067;-80
2022/06/11 06:45:29;;;;;;;22.25;6.30;;;;;;;24.49;74.55;102186.59;10546723;28;20453;-79
2022/06/11 06:50:30;;;;;;;8.77;5.15;;;;;;;24.71;71.50;102191.25;10525991;28;20089;-80
2022/06/11 06:55:30;;;;;;;18.52;5.13;;;;;;;24.84;68.79;102185.31;10548216;28;20534;-80
2022/06/11 07:00:31;;;;;;;16.17;5.15;;;;;;;24.91;64.48;102185.09;10523053;28;20031;-79
2022/06/11 07:05:31;;;;;;;8.48;4.45;;;;;;;25.30;64.77;102194.03;10546044;28;20473;-78
2022/06/11 07:10:32;;;;;;;17.75;5.15;;;;;;;25.52;62.20;102196.69;10548755;28;20109;-76
2022/06/11 07:15:32;;;;;;;11.85;3.72;;;;;;;25.70;62.33;102187.13;10554109;28;20047;-78
2022/06/11 07:20:33;;;;;;;15.48;5.07;;;;;;;26.06;60.55;102193.72;10497762;28;20028;-78
2022/06/11 07:25:33;;;;;;;13.93;5.60;;;;;;;26.31;62.78;102198.53;10514311;28;20039;-78
2022/06/11 07:30:35;;;;;;;11.13;4.40;;;;;;;26.44;57.56;102199.97;10548526;28;20028;-78
2022/06/11 07:35:36;;;;;;;5.75;4.15;;;;;;;26.82;57.07;102201.47;10547755;28;20380;-78
2022/06/11 07:40:36;;;;;;;12.88;4.47;;;;;;;26.74;55.27;102196.47;10547225;28;20047;-74
2022/06/11 07:45:37;;;;;;;10.82;3.85;;;;;;;27.23;57.68;102212.66;10548005;28;20369;-77
2022/06/11 07:50:41;;;;;;;17.23;5.10;;;;;;;27.47;50.66;102206.53;10546574;28;20024;-77
2022/06/11 07:55:44;;;;;;;11.40;3.45;;;;;;;27.73;55.42;102210.13;10513388;28;20512;-77
2022/06/11 08:00:46;;;;;;;5.22;3.13;;;;;;;27.94;55.71;102213.72;10545982;28;20036;-77
2022/06/11 08:05:47;;;;;;;8.98;3.65;;;;;;;28.21;51.69;102214.16;10546351;28;20089;-78
2022/06/11 08:10:47;;;;;;;10.38;4.25;;;;;;;28.19;49.51;102221.13;10527959;28;20089;-78
2022/06/11 08:15:49;;;;;;;9.70;4.18;;;;;;;28.46;47.84;102217.97;10545069;28;20036;-77
2022/06/11 08:20:52;;;;;;;3.95;2.95;;;;;;;28.51;51.95;102215.16;10529027;28;20042;-78
2022/06/11 08:25:52;;;;;;;8.60;4.13;;;;;;;28.62;46.28;102221.50;10545410;28;20039;-79
2022/06/11 08:30:53;;;;;;;3.50;3.05;;;;;;;28.86;46.75;102218.84;10527169;28;20032;-77
2022/06/11 08:35:53;;;;;;;12.88;4.55;;;;;;;28.25;50.55;102220.00;10526433;28;20113;-76
2022/06/11 08:40:54;;;;;;;7.95;2.65;;;;;;;26.89;54.06;102215.94;10525811;28;20473;-77
2022/06/11 08:46:21;;;;;;;13.95;3.33;;;;;;;27.97;51.92;102211.19;10509019;28;20105;-77
2022/06/11 08:51:39;;;;;;;16.00;4.90;;;;;;;28.92;47.79;102218.53;10523280;28;20040;-77
2022/06/11 08:56:47;;;;;;;7.50;4.00;;;;;;;28.67;46.51;102208.38;10543430;28;20042;-77
2022/06/11 09:02:07;;;;;;;9.38;3.85;;;;;;;29.14;48.19;102208.94;10509264;28;20056;-77
2022/06/11 09:07:16;;;;;;;10.45;4.40;;;;;;;29.30;47.31;102207.66;10527988;28;20119;-69
2022/06/11 09:12:32;;;;;;;18.13;4.63;;;;;;;28.43;50.20;102197.09;10525828;28;20056;-69
2022/06/11 09:17:53;;;;;;;3.60;2.87;;;;;;;28.70;48.22;102204.19;10542952;28;20039;-70
2022/06/11 09:23:04;;;;;;;5.63;3.70;;;;;;;28.34;46.14;102200.75;10500895;28;20038;-70
2022/06/11 09:28:14;;;;;;;9.93;4.28;;;;;;;27.88;50.86;102198.97;10524214;28;20028;-69
2022/06/11 09:33:26;;;;;;;9.77;4.05;;;;;;;27.93;47.60;102207.31;10508471;28;20020;-68
2022/06/11 09:38:26;;;;;;;11.07;4.22;;;;;;;26.76;51.53;102210.09;10524630;28;20028;-68
2022/06/11 09:44:01;;;;;;;24.58;5.80;;;;;;;26.37;53.39;102208.56;10523123;28;20032;-69
2022/06/11 09:49:34;;;;;;;19.60;6.38;;;;;;;28.47;49.17;102212.13;10525918;28;20060;-69
2022/06/11 09:54:54;;;;;;;11.05;5.03;;;;;;;26.31;52.58;102220.75;10486477;28;20393;-68
2022/06/11 09:59:59;;;;;;;16.60;6.40;;;;;;;27.47;49.42;102223.22;10540206;28;20066;-68
2022/06/11 10:05:00;;;;;;;7.88;4.38;;;;;;;28.94;47.83;102223.81;10541736;28;20032;-68
2022/06/11 10:10:25;;;;;;;6.32;4.15;;;;;;;28.72;47.40;102221.47;10505817;28;20048;-68
2022/06/11 10:15:30;;;;;;;7.47;3.42;;;;;;;27.06;47.29;102229.59;10517984;28;20036;-68
2022/06/11 10:20:45;;;;;;;10.93;4.60;;;;;;;28.09;45.30;102235.94;10524215;28;20110;-68
2022/06/11 10:26:06;;;;;;;15.70;3.87;;;;;;;28.81;44.84;102236.44;10507124;28;20020;-68
2022/06/11 10:31:30;;;;;;;8.95;4.00;;;;;;;29.25;44.31;102237.56;10541411;28;20024;-68
2022/06/11 10:36:32;;;;;;;16.02;5.22;;;;;;;28.73;44.61;102245.44;10540033;28;20085;-68
2022/06/11 10:41:44;;;;;;;9.60;3.72;;;;;;;29.70;41.17;102247.50;10521720;28;20031;-68
2022/06/11 10:46:44;;;;;;;13.90;4.78;;;;;;;30.17;41.89;102234.69;10523417;28;20422;-68
2022/06/11 10:51:48;;;;;;;7.55;3.78;;;;;;;30.08;41.25;102236.47;10505706;28;20028;-68
2022/06/11 10:56:51;;;;;;;12.65;3.38;;;;;;;30.23;41.80;102235.50;10540506;28;20041;-68
2022/06/11 11:02:18;;;;;;;8.18;3.97;;;;;;;29.93;42.13;102236.66;10521602;28;20066;-67
2022/06/11 11:07:19;;;;;;;5.72;3.83;;;;;;;30.22;43.68;102240.25;10525616;28;20044;-68
2022/06/11 11:12:23;;;;;;;6.13;4.38;;;;;;;30.30;40.17;102236.78;10522183;28;20056;-68
2022/06/11 11:17:25;;;;;;;6.85;3.38;;;;;;;30.32;40.81;102233.72;10521913;28;20119;-68
2022/06/11 11:22:26;;;;;;;10.85;4.00;;;;;;;30.48;39.79;102231.53;10523803;28;20032;-68
2022/06/11 11:27:29;;;;;;;4.10;3.67;;;;;;;29.38;42.39;102237.72;10540489;28;20032;-68
2022/06/11 11:32:33;;;;;;;14.07;5.22;;;;;;;28.05;45.60;102248.78;10505094;28;20123;-68
2022/06/11 11:37:33;;;;;;;11.23;3.13;;;;;;;28.72;42.60;102239.03;10520862;28;20093;-68
2022/06/11 11:42:38;;;;;;;9.10;4.43;;;;;;;28.27;44.92;102245.59;10539214;28;20039;-68
2022/06/11 11:47:39;;;;;;;4.97;3.13;;;;;;;28.05;42.81;102243.19;10504380;28;20039;-68
2022/06/11 11:52:51;;;;;;;8.27;4.15;;;;;;;28.21;43.27;102242.03;10526321;28;20028;-68
2022/06/11 11:57:58;;;;;;;11.73;4.82;;;;;;;28.58;45.42;102242.72;10512783;28;20035;-68
2022/06/11 12:03:03;;;;;;;14.18;5.65;;;;;;;27.22;44.79;102240.75;10464327;28;20067;-67
2022/06/11 12:08:11;;;;;;;16.63;4.15;;;;;;;27.96;44.50;102251.28;10527455;28;20067;-67
2022/06/11 12:13:27;;;;;;;4.50;3.47;;;;;;;27.64;44.57;102250.78;10545276;28;20050;-68
2022/06/11 12:18:45;;;;;;;6.63;4.35;;;;;;;27.67;43.38;102241.88;10527822;28;20035;-68
2022/06/11 12:24:23;;;;;;;9.68;4.93;;;;;;;28.37;43.94;102237.22;10512190;28;20032;-67
2022/06/11 12:29:33;;;;;;;7.93;3.35;;;;;;;29.01;41.18;102238.31;10424237;28;20492;-68
2022/06/11 12:34:35;;;;;;;10.65;3.83;;;;;;;29.25;40.18;102235.59;10528240;28;20039;-70
2022/06/11 12:39:53;;;;;;;13.60;3.22;;;;;;;28.63;39.14;102234.34;10509393;28;20054;-69
2022/06/11 12:45:12;;;;;;;8.05;3.95;;;;;;;28.68;36.49;102237.91;10526519;28;20094;-68
2022/06/11 12:50:38;;;;;;;9.90;4.05;;;;;;;28.62;36.17;102244.66;10543582;28;20024;-69
2022/06/11 12:55:44;;;;;;;7.85;3.13;;;;;;;28.56;39.40;102248.59;10525545;28;20031;-69
2022/06/11 13:01:02;;;;;;;6.00;3.55;;;;;;;28.56;39.46;102245.81;10543603;28;20070;-69
2022/06/11 13:06:24;;;;;;;7.47;2.95;;;;;;;28.90;37.94;102242.25;10544298;28;20040;-68
2022/06/11 13:11:40;;;;;;;7.38;3.30;;;;;;;28.47;37.02;102255.88;10544624;28;20052;-68
2022/06/11 13:16:48;;;;;;;8.98;2.97;;;;;;;28.17;38.19;102249.25;10525298;28;20071;-69
2022/06/11 13:21:59;;;;;;;4.75;2.75;;;;;;;28.42;39.29;102248.38;10510081;28;20028;-68
2022/06/11 13:27:30;;;;;;;6.93;3.17;;;;;;;28.63;38.81;102251.91;10508564;28;20438;-70
2022/06/11 13:32:36;;;;;;;7.40;2.80;;;;;;;28.45;37.50;102250.56;10528605;28;20074;-69
2022/06/11 13:37:55;;;;;;;3.30;3.00;;;;;;;28.29;37.24;102238.63;10542739;28;20115;-70
2022/06/11 13:43:14;;;;;;;5.35;2.83;;;;;;;28.31;37.96;102238.38;10541569;28;20375;-70
2022/06/11 13:48:15;;;;;;;4.00;2.92;;;;;;;28.41;35.43;102255.06;10527322;28;20036;-71
2022/06/11 13:59:12;;;;;;;3.78;2.50;;;;;;;27.63;36.98;102235.16;10541375;28;20112;-70
2022/06/11 14:04:39;;;;;;;8.43;3.10;;;;;;;27.43;36.58;102230.47;10525921;28;20024;-75
2022/06/11 14:15:14;;;;;;;3.90;2.53;;;;;;;27.33;34.65;102228.53;10541271;28;20028;-77
2022/06/11 14:20:33;;;;;;;6.00;2.40;;;;;;;27.49;35.79;102218.22;10541749;28;20028;-74
2022/06/11 14:25:35;;;;;;;3.22;2.38;;;;;;;27.24;32.18;102217.13;10540546;28;20484;-74
2022/06/11 14:30:35;;;;;;;3.00;2.20;;;;;;;26.76;34.58;102218.44;10540275;28;20032;-75
2022/06/11 14:35:36;;;;;;;3.60;2.38;;;;;;;26.59;36.19;102216.72;10505371;28;20028;-74
2022/06/11 14:40:36;;;;;;;5.88;2.58;;;;;;;26.13;35.00;102227.63;10522294;28;20441;-75
2022/06/11 14:45:37;;;;;;;7.25;2.80;;;;;;;25.85;36.24;102216.94;10521910;28;20032;-75
2022/06/11 14:50:45;;;;;;;3.67;1.85;;;;;;;25.89;36.45;102218.91;10539636;28;20066;-75
2022/06/11 14:55:45;;;;;;;4.97;2.17;;;;;;;25.87;35.85;102206.38;10540406;28;20051;-75
2022/06/11 15:00:53;;;;;;;2.40;2.20;;;;;;;25.70;35.89;102210.13;10521293;28;20498;-75
2022/06/11 15:06:22;;;;;;;2.00;1.42;;;;;;;25.52;34.75;102205.03;10505299;28;20031;-75
2022/06/11 15:11:34;;;;;;;1.88;1.77;;;;;;;25.40;35.13;102202.47;10540428;28;20048;-74
2022/06/11 15:16:39;;;;;;;3.30;1.90;;;;;;;25.48;35.37;102198.34;10540571;28;20033;-74
2022/06/11 15:21:59;;;;;;;3.10;2.00;;;;;;;25.38;36.28;102203.81;10521489;28;20038;-75
2022/06/11 15:27:00;;;;;;;17.35;4.43;;;;;;;25.23;37.43;102199.81;10546609;28;20046;-74
2022/06/11 15:32:04;;;;;;;3.47;2.92;;;;;;;25.04;35.76;102204.03;10529485;28;20146;-75
2022/06/11 15:37:16;;;;;;;11.95;1.73;;;;;;;24.80;35.60;102207.16;10529305;28;20089;-74
2022/06/11 15:42:22;;;;;;;1.67;1.58;;;;;;;24.67;36.27;102207.56;10547741;28;20103;-74
2022/06/11 15:47:24;;;;;;;1.63;1.53;;;;;;;24.64;37.04;102207.25;10497321;28;20032;-75
2022/06/11 15:52:38;;;;;;;2.20;1.45;;;;;;;24.45;35.07;102206.78;10546612;28;20027;-75
2022/06/11 15:57:40;;;;;;;2.63;1.20;;;;;;;24.28;35.65;102196.59;10529174;28;20376;-74
2022/06/11 16:02:41;;;;;;;1.75;1.42;;;;;;;24.12;36.83;102203.00;10527643;28;20089;-74
2022/06/11 16:07:41;;;;;;;11.23;2.50;;;;;;;24.06;37.13;102192.97;10511328;28;20530;-74
2022/06/11 16:12:42;;;;;;;2.90;2.10;;;;;;;23.92;38.17;102197.19;10511451;28;20052;-74
2022/06/11 16:17:43;;;;;;;3.95;3.33;;;;;;;23.74;38.50;102196.41;10511151;28;20043;-75
2022/06/11 16:22:44;;;;;;;4.00;3.28;;;;;;;23.44;38.53;102200.34;10527061;28;20031;-74
2022/06/11 16:27:45;;;;;;;3.45;1.85;;;;;;;22.60;38.53;102196.63;10545222;28;20039;-74
2022/06/11 16:32:46;;;;;;;2.15;1.95;;;;;;;22.06;39.97;102189.44;10528273;28;20047;-74
2022/06/11 16:37:47;;;;;;;5.28;2.63;;;;;;;21.76;40.21;102189.63;10526133;28;20047;-74
2022/06/11 16:42:47;;;;;;;3.90;2.83;;;;;;;21.46;40.52;102198.00;10526755;28;20035;-74
2022/06/11 16:47:54;;;;;;;4.10;2.60;;;;;;;21.11;40.67;102197.91;10545245;28;20036;-74
2022/06/11 16:58:31;;;;;;;4.68;3.15;;;;;;;20.84;41.13;102192.00;10528669;28;20040;-74
2022/06/11 17:03:48;;;;;;;4.00;2.22;;;;;;;20.76;41.07;102195.06;10543918;28;20032;-74
2022/06/11 17:08:48;;;;;;;;;;;;;;;20.72;41.51;102193.88;10526785;28;20048;-74
2022/06/11 17:13:54;;;;;;;2.45;2.25;;;;;;;20.62;42.59;102199.94;10525955;28;20364;-74
2022/06/11 17:19:05;;;;;;;15.95;3.55;;;;;;;20.53;43.33;102196.66;10525248;28;20480;-74
2022/06/11 17:24:31;;;;;;;4.72;3.25;;;;;;;20.41;45.36;102196.56;10525632;28;20039;-74
2022/06/11 17:29:32;;;;;;;5.53;2.90;;;;;;;20.28;45.72;102198.66;10543567;28;20028;-73
2022/06/11 17:34:32;;;;;;;13.68;4.72;;;;;;;20.17;46.92;102209.34;10524431;28;20036;-74
2022/06/11 17:39:36;;;;;;;2.88;2.45;;;;;;;20.06;48.05;102209.28;10525515;28;20034;-74
2022/06/11 17:44:38;;;;;;;11.40;5.30;;;;;;;19.92;48.43;102201.19;10542360;28;20035;-74
2022/06/11 17:49:42;;;;;;;7.60;4.10;;;;;;;19.68;50.32;102205.63;10542854;28;20038;-74
2022/06/11 17:54:42;;;;;;;2.53;1.25;;;;;;;19.47;50.76;102198.63;10542424;28;20035;-74
2022/06/11 17:59:43;;;;;;;4.57;3.03;;;;;;;19.46;50.51;102183.22;10523016;28;20489;-73
2022/06/11 18:04:44;;;;;;;2.05;1.70;;;;;;;19.38;50.78;102182.66;10523635;28;20043;-73
2022/06/11 18:09:44;;;;;;;7.18;2.10;;;;;;;19.34;51.12;102181.44;10541171;28;20056;-73
2022/06/11 18:14:45;;;;;;;3.20;1.92;;;;;;;19.29;50.11;102185.69;10542310;28;20032;-74
2022/06/11 18:19:45;;;;;;;6.22;1.30;;;;;;;19.29;49.23;102187.59;10541658;28;20070;-74
2022/06/11 18:30:06;;;;;;;3.22;1.80;;;;;;;19.24;48.24;102176.44;10540839;28;20040;-73
2022/06/11 18:35:07;;;;;;;9.13;1.95;;;;;;;19.15;48.26;102184.13;10505644;28;20031;-74
2022/06/11 18:40:09;;;;;;;2.75;1.35;;;;;;;19.07;47.99;102180.81;10522935;28;20092;-74
2022/06/11 18:45:11;;;;;;;2.60;1.25;;;;;;;18.98;48.24;102178.31;10539711;28;20059;-73
2022/06/11 18:50:12;;;;;;;13.77;2.38;;;;;;;18.86;48.34;102165.53;10522346;28;20035;-74
2022/06/11 18:55:13;;;;;;;1.08;1.00;;;;;;;18.75;48.96;102170.66;10540051;28;20432;-74
2022/06/11 19:00:17;;;;;;;2.05;1.88;;;;;;;18.65;49.67;102183.16;10546114;28;20101;-74
2022/06/11 19:05:17;;;;;;;5.85;1.95;;;;;;;18.52;49.50;102184.09;10537348;28;20032;-74
2022/06/11 19:10:18;;;;;;;5.03;1.52;;;;;;;18.46;49.32;102190.44;10536342;28;20101;-73
2022/06/11 19:15:18;;;;;;;4.03;1.60;;;;;;;18.31;49.67;102186.09;10535847;28;20039;-74
2022/06/11 19:20:19;;;;;;;5.13;2.30;;;;;;;18.21;49.60;102188.44;10553747;28;20044;-74
2022/06/11 19:25:20;;;;;;;6.82;1.80;;;;;;;18.09;49.79;102190.16;10535714;28;20088;-74
2022/06/11 19:30:23;;;;;;;1.98;1.60;;;;;;;17.97;50.12;102197.41;10554642;28;20046;-74
2022/06/11 19:35:24;;;;;;;8.63;2.15;;;;;;;17.81;50.88;102202.28;10519201;28;20051;-73
2022/06/11 19:40:26;;;;;;;5.15;2.67;;;;;;;17.73;50.90;102196.13;10553780;28;20454;-74
2022/06/11 19:45:26;;;;;;;3.78;1.08;;;;;;;17.57;51.53;102195.53;10535834;28;20040;-73
2022/06/11 19:50:27;;;;;;;12.98;2.45;;;;;;;17.42;52.69;102197.63;10519764;28;20078;-74
2022/06/11 19:55:28;;;;;;;4.68;1.90;;;;;;;17.35;52.02;102205.84;10553067;28;20110;-74
2022/06/11 20:00:29;;;;;;;4.43;2.03;;;;;;;17.19;53.13;102200.81;10553509;28;20036;-73
2022/06/11 20:05:29;;;;;;;7.43;1.63;;;;;;;17.12;53.79;102213.66;10552582;28;20028;-74
2022/06/11 20:10:30;;;;;;;13.30;2.70;;;;;;;16.99;55.11;102208.16;10514798;28;20135;-73
2022/06/11 20:15:30;;;;;;;3.67;1.50;;;;;;;16.86;56.66;102209.81;10511321;28;20115;-74
2022/06/11 20:20:30;;;;;;;6.32;2.20;;;;;;;16.82;56.81;102211.28;10546349;28;20040;-74
2022/06/11 20:25:31;;;;;;;7.72;3.40;;;;;;;16.74;56.74;102212.28;10527475;28;20068;-73
2022/06/11 20:30:31;;;;;;;2.90;2.15;;;;;;;16.68;56.79;102217.72;10530032;28;20109;-74
2022/06/11 20:35:32;;;;;;;7.05;2.05;;;;;;;16.49;59.36;102222.91;10544598;28;20411;-73
2022/06/11 20:40:32;;;;;;;11.00;2.55;;;;;;;16.43;59.56;102222.91;10544262;28;20048;-73
2022/06/11 20:45:33;;;;;;;16.80;3.47;;;;;;;16.37;60.30;102224.56;10544345;28;20028;-74
2022/06/11 20:50:33;;;;;;;2.75;2.03;;;;;;;16.28;60.08;102212.13;10525981;28;20089;-73
2022/06/11 20:55:34;;;;;;;19.55;3.45;;;;;;;16.21;60.62;102214.84;10543760;28;20434;-73
2022/06/11 21:00:34;;;;;;;8.38;3.03;;;;;;;16.12;60.16;102218.78;10544329;28;20032;-73
2022/06/11 21:05:35;;;;;;;15.73;3.17;;;;;;;16.00;59.43;102226.69;10543838;28;20093;-73
2022/06/11 21:10:35;;;;;;;2.65;2.25;;;;;;;15.83;59.00;102221.75;10526245;28;20134;-73
2022/06/11 21:15:36;;;;;;;10.32;4.13;;;;;;;15.74;58.53;102218.34;10525708;28;20028;-73
2022/06/11 21:20:38;;;;;;;9.43;3.42;;;;;;;15.58;60.09;102223.03;10525375;28;20141;-73
2022/06/11 21:25:40;;;;;;;8.38;2.47;;;;;;;15.53;60.86;102216.47;10525431;28;20083;-74
2022/06/11 21:30:40;;;;;;;16.30;3.80;;;;;;;15.55;62.64;102215.22;10542531;28;20028;-74
2022/06/11 21:35:41;;;;;;;7.97;2.75;;;;;;;15.58;63.76;102217.56;10542576;28;20036;-73
2022/06/11 21:41:42;;;;;;;14.73;3.70;;;;;;;15.62;64.72;102219.88;10524451;28;20473;-78
2022/06/11 21:46:04;;;;;;;9.75;2.97;;;;;;;15.67;65.64;102226.47;10543696;28;20105;-73
2022/06/11 21:51:04;;;;;;;3.88;2.25;;;;;;;15.66;65.96;102229.38;10541791;28;20036;-74
2022/06/11 21:56:05;;;;;;;4.63;2.15;;;;;;;15.59;66.24;102219.22;10542630;28;20036;-74
2022/06/11 22:01:05;;;;;;;7.00;3.05;;;;;;;15.53;65.44;102236.41;10540931;28;20032;-73
2022/06/11 22:06:05;;;;;;;12.57;3.47;;;;;;;15.43;65.18;102233.19;10541246;28;20469;-73
2022/06/11 22:11:06;;;;;;;21.08;3.95;;;;;;;15.37;67.29;102231.22;10540533;28;20105;-74
2022/06/11 22:16:10;;;;;;;5.60;2.72;;;;;;;15.35;67.23;102234.19;10542237;28;20485;-74
2022/06/11 22:21:14;;;;;;;6.88;2.55;;;;;;;15.29;67.72;102236.84;10540976;28;20027;-74
2022/06/11 22:26:14;;;;;;;13.10;4.00;;;;;;;15.22;72.14;102220.41;10540909;28;20384;-74
2022/06/11 22:31:16;;;;;;;7.03;2.90;;;;;;;15.31;76.62;102223.84;10524112;28;20028;-75
2022/06/11 22:36:16;;;;;;;8.02;3.03;;;;;;;15.40;76.73;102232.72;10523321;28;20032;-75
2022/06/11 22:41:18;;;;;;;13.30;3.50;;;;;;;15.41;75.83;102223.50;10504961;28;20427;-74
2022/06/11 22:46:19;;;;;;;11.30;2.95;;;;;;;15.43;75.02;102224.16;10523089;28;20032;-72
2022/06/11 22:51:19;;;;;;;23.65;5.15;;;;;;;15.45;73.65;102228.38;10505344;28;20040;-72
2022/06/11 22:56:20;;;;;;;7.22;3.33;;;;;;;15.37;74.13;102225.78;10540139;28;20035;-73
2022/06/11 23:01:20;;;;;;;5.80;3.38;;;;;;;15.29;77.39;102231.38;10522019;28;20059;-75
2022/06/11 23:06:21;;;;;;;10.25;3.33;;;;;;;15.31;78.41;102232.03;10540805;28;20093;-74
2022/06/11 23:11:22;;;;;;;10.05;2.55;;;;;;;15.24;81.75;102233.84;10521875;28;20056;-73
2022/06/11 23:16:22;;;;;;;12.07;3.78;;;;;;;15.29;79.71;102231.38;10521875;28;20038;-73
2022/06/11 23:21:27;;;;;;;9.00;3.58;;;;;;;15.23;81.15;102213.06;10539576;28;20036;-74
2022/06/11 23:26:28;;;;;;;12.88;4.55;;;;;;;15.20;83.31;102221.66;10539386;28;20064;-73
2022/06/11 23:31:31;;;;;;;10.30;3.47;;;;;;;15.17;85.05;102224.78;10521385;28;20123;-74
2022/06/11 23:36:31;;;;;;;15.95;4.10;;;;;;;15.17;82.42;102222.03;10521252;28;20453;-74